Time;durP1;ratioP1;P1;durP2;ratioP2;P2;SDS_P1;SDS_P2;PMS_P1;PMS_P2;Temp;Humidity;BMP_temperature;BMP_pressure;BME280_temperature;BME280_humidity;BME280_pressure;Samples;Min_cycle;Max_cycle;Signal;HPM_P1;HPM_P2
2023/05/16 00:02:07;;;;;;;13.27;2.72;;;8.20;99.90;;;;;;5099466;28;20119;-79
2023/05/16 00:04:33;;;;;;;6.88;1.90;;;8.20;99.90;;;;;;5081089;28;20095;-80
2023/05/16 00:06:58;;;;;;;12.48;2.33;;;8.20;99.90;;;;;;5082212;28;20166;-79
2023/05/16 00:09:24;;;;;;;14.15;1.88;;;8.20;99.90;;;;;;5079252;28;20052;-80
2023/05/16 00:11:50;;;;;;;11.30;2.30;;;8.20;99.90;;;;;;5082682;28;20028;-80
2023/05/16 00:14:15;;;;;;;14.00;2.00;;;8.20;99.90;;;;;;5086504;28;20490;-80
2023/05/16 00:16:41;;;;;;;16.33;2.33;;;8.10;99.90;;;;;;5064545;28;20064;-80
2023/05/16 00:19:07;;;;;;;12.13;2.17;;;8.10;99.90;;;;;;5087912;28;20091;-79
2023/05/16 00:21:32;;;;;;;9.32;1.70;;;8.10;99.90;;;;;;5063582;28;20037;-78
2023/05/16 00:23:58;;;;;;;6.50;1.73;;;8.10;99.90;;;;;;5083174;28;20066;-79
2023/05/16 00:26:23;;;;;;;10.10;2.20;;;8.10;99.90;;;;;;5079838;28;20064;-79
2023/05/16 00:28:49;;;;;;;9.02;1.67;;;8.10;99.90;;;;;;5081866;28;20075;-79
2023/05/16 00:31:15;;;;;;;10.48;1.85;;;8.00;99.90;;;;;;5086701;28;20035;-80
2023/05/16 00:33:40;;;;;;;14.23;2.45;;;8.00;99.90;;;;;;5060915;28;20056;-80
2023/05/16 00:36:06;;;;;;;13.18;1.77;;;8.00;99.90;;;;;;5084993;28;20043;-79
2023/05/16 00:38:31;;;;;;;7.20;1.67;;;8.00;99.90;;;;;;5079980;28;20043;-79
2023/05/16 00:40:57;;;;;;;10.85;1.90;;;7.90;99.90;;;;;;5066246;28;20071;-79
2023/05/16 00:43:23;;;;;;;11.45;1.80;;;7.90;99.90;;;;;;5084139;28;20063;-80
2023/05/16 00:45:48;;;;;;;10.15;1.80;;;7.90;99.90;;;;;;5072817;28;20040;-79
2023/05/16 00:48:14;;;;;;;11.25;2.13;;;7.90;99.90;;;;;;5081236;28;20479;-80
2023/05/16 00:50:40;;;;;;;9.20;1.80;;;7.90;99.90;;;;;;5090510;28;20062;-80
2023/05/16 00:53:06;;;;;;;11.68;1.65;;;7.80;99.90;;;;;;5079990;28;20037;-80
2023/05/16 00:55:31;;;;;;;11.82;2.20;;;7.80;99.90;;;;;;5086176;28;20444;-79
2023/05/16 00:57:58;;;;;;;13.52;2.13;;;7.80;99.90;;;;;;5080871;28;20492;-79
2023/05/16 01:00:24;;;;;;;7.32;1.73;;;7.80;99.90;;;;;;5083265;28;20041;-79
2023/05/16 01:02:52;;;;;;;11.68;1.70;;;7.70;99.90;;;;;;5085570;28;20048;-79
2023/05/16 01:05:18;;;;;;;8.80;1.52;;;7.70;99.90;;;;;;5095610;28;20051;-80
2023/05/16 01:07:44;;;;;;;9.40;1.60;;;7.70;99.90;;;;;;5083894;28;20415;-80
2023/05/16 01:10:10;;;;;;;8.32;1.48;;;7.60;99.90;;;;;;5080029;28;20035;-79
2023/05/16 01:12:53;;;;;;;11.50;1.92;;;7.60;99.90;;;;;;5066335;28;20037;-79
2023/05/16 01:15:31;;;;;;;7.95;1.55;;;7.60;99.90;;;;;;5079937;28;20135;-81
2023/05/16 01:18:11;;;;;;;10.02;1.42;;;7.60;99.90;;;;;;5074505;28;20047;-79
2023/05/16 01:20:37;;;;;;;9.32;1.98;;;7.60;99.90;;;;;;5081037;28;20411;-79
2023/05/16 01:23:26;;;;;;;11.68;2.15;;;7.60;99.90;;;;;;5062632;28;20064;-77
2023/05/16 01:26:11;;;;;;;7.80;1.33;;;7.50;99.90;;;;;;5079837;28;20040;-79
2023/05/16 01:28:38;;;;;;;7.65;1.40;;;7.50;99.90;;;;;;5088896;28;20047;-79
2023/05/16 01:31:04;;;;;;;8.30;1.90;;;7.50;99.90;;;;;;5079680;28;20496;-78
2023/05/16 01:33:29;;;;;;;9.02;2.10;;;7.50;99.90;;;;;;5081344;28;20068;-79
2023/05/16 01:36:21;;;;;;;7.88;1.58;;;7.50;99.90;;;;;;5085270;28;20037;-79
2023/05/16 01:39:02;;;;;;;9.80;2.00;;;7.50;99.90;;;;;;5083875;28;20046;-79
2023/05/16 01:41:38;;;;;;;7.50;1.55;;;7.60;99.90;;;;;;5067465;28;20127;-79
2023/05/16 01:44:10;;;;;;;7.80;1.60;;;7.50;99.90;;;;;;5095256;28;20434;-79
2023/05/16 01:46:40;;;;;;;8.85;1.73;;;7.50;99.90;;;;;;5078087;28;20036;-80
2023/05/16 01:49:16;;;;;;;11.52;1.70;;;7.50;99.90;;;;;;5085367;28;20449;-79
2023/05/16 01:51:47;;;;;;;8.73;2.30;;;7.50;99.90;;;;;;5059556;28;20090;-80
2023/05/16 01:54:18;;;;;;;10.52;2.13;;;7.60;99.90;;;;;;5083639;28;20028;-80
2023/05/16 01:56:52;;;;;;;8.43;1.80;;;7.60;99.90;;;;;;5076341;28;20039;-79
2023/05/16 01:59:20;;;;;;;10.65;2.08;;;7.60;99.90;;;;;;5082732;28;20119;-80
2023/05/16 02:01:45;;;;;;;10.40;1.85;;;7.70;99.90;;;;;;5082543;28;20037;-79
2023/05/16 02:04:13;;;;;;;9.32;1.70;;;7.70;99.90;;;;;;5088244;28;20107;-79
2023/05/16 02:06:39;;;;;;;7.00;1.40;;;7.70;99.90;;;;;;5083097;28;20052;-79
2023/05/16 02:09:05;;;;;;;11.25;2.08;;;7.70;99.90;;;;;;5079807;28;20099;-80
2023/05/16 02:11:31;;;;;;;7.80;1.65;;;7.70;99.90;;;;;;5081771;28;20095;-79
2023/05/16 02:13:56;;;;;;;8.48;1.40;;;7.70;99.90;;;;;;5077966;28;20047;-79
2023/05/16 02:16:22;;;;;;;7.60;1.38;;;7.70;99.90;;;;;;5081510;28;20286;-78
2023/05/16 02:18:48;;;;;;;8.85;1.40;;;7.70;99.90;;;;;;5066877;28;20127;-80
2023/05/16 02:21:13;;;;;;;8.88;1.77;;;7.70;99.90;;;;;;5081632;28;20044;-80
2023/05/16 02:23:39;;;;;;;11.18;1.55;;;7.70;99.90;;;;;;5081833;28;20066;-80
2023/05/16 02:26:05;;;;;;;8.93;1.83;;;7.70;99.90;;;;;;5079226;28;20047;-79
2023/05/16 02:28:30;;;;;;;9.73;2.05;;;7.80;99.90;;;;;;5080990;28;20519;-79
2023/05/16 02:30:57;;;;;;;9.60;1.90;;;7.80;99.90;;;;;;5077113;28;20039;-80
2023/05/16 02:33:27;;;;;;;10.38;1.60;;;7.80;99.90;;;;;;5080926;28;20052;-79
2023/05/16 02:35:53;;;;;;;8.75;1.98;;;7.80;99.90;;;;;;5084170;28;20067;-78
2023/05/16 02:38:20;;;;;;;8.38;1.98;;;7.80;99.90;;;;;;5080806;28;20104;-80
2023/05/16 02:40:49;;;;;;;7.80;1.77;;;7.80;99.90;;;;;;5082056;28;20043;-79
2023/05/16 02:43:14;;;;;;;8.32;1.92;;;7.80;99.90;;;;;;5082355;28;20040;-80
2023/05/16 02:45:40;;;;;;;7.07;1.65;;;7.80;99.90;;;;;;5101230;28;20047;-80
2023/05/16 02:48:06;;;;;;;14.20;1.80;;;7.70;99.90;;;;;;5095541;28;20123;-79
2023/05/16 02:50:32;;;;;;;11.25;1.92;;;7.70;99.90;;;;;;5070661;28;20070;-80
2023/05/16 02:52:58;;;;;;;7.72;1.77;;;7.60;99.90;;;;;;5096214;28;20433;-80
2023/05/16 02:55:25;;;;;;;5.57;1.52;;;7.60;99.90;;;;;;5071818;28;20043;-80
2023/05/16 02:57:51;;;;;;;7.88;1.50;;;7.60;99.90;;;;;;5094437;28;20092;-80
2023/05/16 03:00:17;;;;;;;10.27;2.03;;;7.60;99.90;;;;;;5094983;28;20063;-80
2023/05/16 03:02:43;;;;;;;5.82;1.65;;;7.60;99.90;;;;;;5095175;28;20040;-80
2023/05/16 03:05:10;;;;;;;7.75;1.75;;;7.60;99.90;;;;;;5094268;28;20047;-80
2023/05/16 03:07:38;;;;;;;6.93;1.63;;;7.60;99.90;;;;;;5069751;28;20075;-79
2023/05/16 03:10:04;;;;;;;9.30;1.85;;;7.60;99.90;;;;;;5095906;28;20028;-80
2023/05/16 03:12:30;;;;;;;8.02;1.80;;;7.50;99.90;;;;;;5095869;28;20039;-79
2023/05/16 03:14:55;;;;;;;8.90;1.83;;;7.50;99.90;;;;;;5096663;28;20475;-80
2023/05/16 03:17:21;;;;;;;9.07;1.95;;;7.50;99.90;;;;;;5096376;28;20043;-80
2023/05/16 03:19:47;;;;;;;9.90;2.25;;;7.40;99.90;;;;;;5095937;28;20042;-80
2023/05/16 03:22:12;;;;;;;6.30;1.42;;;7.40;99.90;;;;;;5095992;28;20032;-80
2023/05/16 03:24:38;;;;;;;11.05;1.83;;;7.30;99.90;;;;;;5094610;28;20086;-80
2023/05/16 03:27:04;;;;;;;7.30;1.73;;;7.30;99.90;;;;;;5093959;28;20039;-80
2023/05/16 03:29:30;;;;;;;11.20;1.75;;;7.30;99.90;;;;;;5094049;28;20036;-79
2023/05/16 03:31:55;;;;;;;8.20;1.98;;;7.30;99.90;;;;;;5094873;28;20053;-80
2023/05/16 03:34:21;;;;;;;7.13;1.45;;;7.30;99.90;;;;;;5094284;28;20040;-79
2023/05/16 03:36:50;;;;;;;8.13;1.75;;;7.30;99.90;;;;;;5094274;28;20032;-80
2023/05/16 03:39:16;;;;;;;8.20;1.45;;;7.30;99.90;;;;;;5093852;28;20036;-80
2023/05/16 03:41:42;;;;;;;10.48;1.60;;;7.30;99.90;;;;;;5093985;28;20032;-79
2023/05/16 03:44:08;;;;;;;6.70;1.73;;;7.30;99.90;;;;;;5084970;28;20038;-80
2023/05/16 03:46:34;;;;;;;8.57;1.88;;;7.30;99.90;;;;;;5097649;28;20044;-80
2023/05/16 03:49:00;;;;;;;11.60;2.25;;;7.20;99.90;;;;;;5098013;28;20039;-80
2023/05/16 03:51:26;;;;;;;5.22;1.80;;;7.30;99.90;;;;;;5098689;28;20044;-80
2023/05/16 03:53:52;;;;;;;8.52;1.85;;;7.30;99.90;;;;;;5097770;28;20035;-80
2023/05/16 03:56:18;;;;;;;7.57;1.42;;;7.20;99.90;;;;;;5097279;28;20096;-80
2023/05/16 03:58:43;;;;;;;7.07;1.60;;;7.20;99.90;;;;;;5098768;28;20126;-79
2023/05/16 04:01:09;;;;;;;8.98;2.05;;;7.20;99.90;;;;;;5097492;28;20036;-80
2023/05/16 04:03:37;;;;;;;8.57;1.55;;;7.20;99.90;;;;;;5099027;28;20044;-80
2023/05/16 04:06:02;;;;;;;5.25;1.52;;;7.20;99.90;;;;;;5097393;28;20040;-79
2023/05/16 04:08:28;;;;;;;9.20;1.80;;;7.20;99.90;;;;;;5097454;28;20139;-80
2023/05/16 04:10:54;;;;;;;7.18;1.75;;;7.20;99.90;;;;;;5097451;28;20028;-80
2023/05/16 04:13:20;;;;;;;8.65;2.03;;;7.20;99.90;;;;;;5097767;28;20040;-80
2023/05/16 04:15:45;;;;;;;7.13;1.88;;;7.30;99.90;;;;;;5096825;28;20040;-79
2023/05/16 04:18:12;;;;;;;9.98;2.22;;;7.30;99.90;;;;;;5097078;28;20036;-80
2023/05/16 04:20:37;;;;;;;8.95;2.47;;;7.30;99.90;;;;;;5096768;28;20063;-80
2023/05/16 04:23:03;;;;;;;7.15;1.70;;;7.40;99.90;;;;;;5097416;28;20385;-78
2023/05/16 04:25:28;;;;;;;5.65;1.80;;;7.50;99.90;;;;;;5096898;28;20044;-80
2023/05/16 04:27:54;;;;;;;8.02;1.20;;;7.60;99.90;;;;;;5097008;28;20128;-80
2023/05/16 04:30:19;;;;;;;9.55;1.90;;;7.70;99.90;;;;;;5097533;28;20115;-79
2023/05/16 04:32:45;;;;;;;7.93;1.98;;;7.80;99.90;;;;;;5096759;28;20106;-79
2023/05/16 04:35:11;;;;;;;7.13;1.85;;;7.90;99.90;;;;;;5097138;28;20036;-79
2023/05/16 04:37:36;;;;;;;9.77;1.83;;;7.90;99.90;;;;;;5080077;28;20038;-80
2023/05/16 04:40:02;;;;;;;8.55;1.55;;;8.00;99.90;;;;;;5096830;28;20111;-80
2023/05/16 04:42:28;;;;;;;7.90;2.05;;;8.10;99.90;;;;;;5097413;28;20407;-80
2023/05/16 04:44:55;;;;;;;12.15;1.60;;;8.20;99.90;;;;;;5084494;28;20411;-80
2023/05/16 04:47:20;;;;;;;5.93;1.50;;;8.30;99.90;;;;;;5097485;28;20036;-80
2023/05/16 04:49:46;;;;;;;7.28;1.50;;;8.40;99.90;;;;;;5074156;28;20042;-80
2023/05/16 04:52:11;;;;;;;8.20;2.13;;;8.50;99.90;;;;;;5096257;28;20036;-80
2023/05/16 04:54:38;;;;;;;9.52;1.80;;;8.60;99.90;;;;;;5095319;28;20036;-80
2023/05/16 04:57:04;;;;;;;5.32;1.65;;;8.60;99.90;;;;;;5097674;28;20115;-78
2023/05/16 04:59:30;;;;;;;8.75;1.90;;;8.60;99.90;;;;;;5094932;28;20123;-80
2023/05/16 05:01:55;;;;;;;10.60;2.35;;;8.40;99.90;;;;;;5096366;28;20534;-79
2023/05/16 05:04:21;;;;;;;9.43;2.53;;;8.30;99.90;;;;;;5096396;28;20043;-79
2023/05/16 05:06:47;;;;;;;9.75;1.85;;;8.30;99.90;;;;;;5097125;28;20066;-80
2023/05/16 05:09:12;;;;;;;13.52;2.10;;;8.20;99.90;;;;;;5095616;28;20036;-80
2023/05/16 05:11:38;;;;;;;9.52;2.10;;;8.30;99.90;;;;;;5097589;28;20092;-80
2023/05/16 05:14:03;;;;;;;11.07;1.67;;;8.30;99.90;;;;;;5097370;28;20071;-80
2023/05/16 05:16:29;;;;;;;10.38;2.38;;;8.30;99.90;;;;;;5097153;28;20067;-80
2023/05/16 05:18:55;;;;;;;9.73;1.83;;;8.30;99.90;;;;;;5070370;28;20040;-79
2023/05/16 05:21:22;;;;;;;10.48;1.90;;;8.40;99.90;;;;;;5075772;28;20123;-80
2023/05/16 05:23:48;;;;;;;7.53;1.70;;;8.30;99.90;;;;;;5096430;28;20036;-79
2023/05/16 05:26:14;;;;;;;8.07;1.67;;;8.40;99.90;;;;;;5077412;28;20039;-81
2023/05/16 05:28:40;;;;;;;9.38;1.83;;;8.50;99.90;;;;;;5093910;28;20032;-80
2023/05/16 05:31:06;;;;;;;9.15;2.10;;;8.50;99.90;;;;;;5095153;28;20043;-80
2023/05/16 05:33:32;;;;;;;10.73;1.70;;;8.50;99.90;;;;;;5095852;28;20036;-79
2023/05/16 05:35:58;;;;;;;9.57;2.20;;;8.60;99.90;;;;;;5071870;28;20032;-79
2023/05/16 05:38:23;;;;;;;8.85;2.05;;;8.60;99.90;;;;;;5096310;28;20040;-81
2023/05/16 05:40:49;;;;;;;8.85;1.70;;;8.70;99.90;;;;;;5097354;28;20040;-80
2023/05/16 05:43:14;;;;;;;5.97;1.95;;;8.80;99.90;;;;;;5097863;28;20032;-80
2023/05/16 05:45:41;;;;;;;10.65;1.98;;;8.90;99.90;;;;;;5102513;28;20368;-81
2023/05/16 05:48:07;;;;;;;9.52;1.70;;;9.00;99.90;;;;;;5098083;28;20044;-81
2023/05/16 05:50:33;;;;;;;7.97;1.75;;;9.20;99.90;;;;;;5099102;28;20036;-81
2023/05/16 05:52:58;;;;;;;10.68;2.05;;;9.30;99.90;;;;;;5089396;28;20101;-79
2023/05/16 05:55:24;;;;;;;11.88;2.05;;;9.30;99.90;;;;;;5098372;28;20036;-81
2023/05/16 05:57:49;;;;;;;9.80;1.70;;;9.30;99.90;;;;;;5096928;28;20117;-80
2023/05/16 06:00:15;;;;;;;7.85;1.95;;;9.20;99.90;;;;;;5096638;28;20040;-79
2023/05/16 06:02:41;;;;;;;10.77;1.98;;;9.10;99.90;;;;;;5079863;28;20029;-82
2023/05/16 06:05:06;;;;;;;7.82;1.75;;;9.00;99.90;;;;;;5094705;28;20032;-80
2023/05/16 06:07:32;;;;;;;10.40;1.70;;;8.90;99.90;;;;;;5094823;28;20035;-81
2023/05/16 06:10:03;;;;;;;7.40;1.48;;;8.90;99.90;;;;;;5097360;28;20068;-80
2023/05/16 06:12:29;;;;;;;8.85;2.05;;;9.00;99.90;;;;;;5097938;28;20054;-81
2023/05/16 06:14:55;;;;;;;12.43;2.28;;;9.20;99.90;;;;;;5078351;28;20028;-82
2023/05/16 06:17:37;;;;;;;5.93;1.55;;;9.30;99.90;;;;;;5094571;28;20474;-80
2023/05/16 06:20:07;;;;;;;11.20;1.85;;;9.40;99.90;;;;;;5074443;28;20085;-80
2023/05/16 06:22:32;;;;;;;11.75;2.00;;;9.60;99.90;;;;;;5094913;28;20101;-80
2023/05/16 06:24:58;;;;;;;6.03;1.42;;;9.70;99.90;;;;;;5069417;28;20064;-80
2023/05/16 06:27:24;;;;;;;8.95;1.55;;;10.20;99.90;;;;;;5094781;28;20032;-81
2023/05/16 06:29:50;;;;;;;7.20;1.23;;;9.80;99.90;;;;;;5093654;28;20121;-81
2023/05/16 06:32:15;;;;;;;9.30;1.35;;;9.80;99.90;;;;;;5094498;28;20115;-79
2023/05/16 06:34:41;;;;;;;4.88;1.02;;;9.90;99.90;;;;;;5077984;28;20043;-81
2023/05/16 06:37:07;;;;;;;5.30;0.75;;;10.10;99.90;;;;;;5094797;28;20035;-80
2023/05/16 06:39:32;;;;;;;4.57;0.88;;;10.20;99.90;;;;;;5093020;28;20131;-81
2023/05/16 06:41:58;;;;;;;7.72;1.58;;;10.30;99.90;;;;;;5097637;28;20448;-79
2023/05/16 06:44:23;;;;;;;7.32;0.90;;;10.50;99.90;;;;;;5103919;28;20039;-82
2023/05/16 06:46:49;;;;;;;6.85;1.27;;;10.50;99.90;;;;;;5096403;28;20518;-83
2023/05/16 06:49:14;;;;;;;9.00;1.40;;;10.60;99.90;;;;;;5088789;28;20031;-82
2023/05/16 06:51:40;;;;;;;8.07;1.40;;;10.80;99.90;;;;;;5077976;28;20040;-79
2023/05/16 06:54:05;;;;;;;8.75;1.13;;;10.80;99.90;;;;;;5095853;28;20035;-79
2023/05/16 06:56:31;;;;;;;5.93;1.80;;;10.70;99.90;;;;;;5095417;28;20032;-80
2023/05/16 06:58:57;;;;;;;6.75;1.58;;;10.80;99.90;;;;;;5070771;28;20038;-78
2023/05/16 07:01:22;;;;;;;10.05;1.50;;;10.90;99.90;;;;;;5096236;28;20083;-79
2023/05/16 07:03:48;;;;;;;12.05;1.40;;;11.00;99.90;;;;;;5094954;28;20167;-81
2023/05/16 07:06:13;;;;;;;11.55;1.60;;;11.10;99.90;;;;;;5095169;28;20109;-80
2023/05/16 07:08:39;;;;;;;5.85;1.30;;;11.20;99.90;;;;;;5095870;28;20032;-79
2023/05/16 07:11:05;;;;;;;15.88;2.13;;;11.40;99.90;;;;;;5096903;28;20512;-80
2023/05/16 07:13:30;;;;;;;6.78;1.50;;;11.60;99.90;;;;;;5097875;28;20043;-82
2023/05/16 07:15:56;;;;;;;7.18;1.60;;;11.60;99.90;;;;;;5097196;28;20028;-82
2023/05/16 07:18:21;;;;;;;7.88;1.50;;;11.40;99.90;;;;;;5094009;28;20503;-82
2023/05/16 07:20:47;;;;;;;10.43;2.25;;;11.10;99.90;;;;;;5096409;28;20109;-81
2023/05/16 07:23:13;;;;;;;9.40;1.80;;;10.90;99.90;;;;;;5100764;28;20040;-81
2023/05/16 07:25:38;;;;;;;7.80;1.48;;;10.90;99.90;;;;;;5099117;28;20075;-81
2023/05/16 07:28:04;;;;;;;8.63;1.50;;;10.80;99.90;;;;;;5100982;28;20094;-82
2023/05/16 07:30:30;;;;;;;7.43;1.98;;;10.70;99.90;;;;;;5101707;28;20135;-83
2023/05/16 07:32:55;;;;;;;7.22;1.70;;;10.60;99.90;;;;;;5104036;28;20491;-82
2023/05/16 07:35:21;;;;;;;7.53;1.52;;;10.50;99.90;;;;;;5100138;28;20040;-79
2023/05/16 07:37:46;;;;;;;10.20;1.50;;;10.80;99.90;;;;;;5099121;28;20036;-80
2023/05/16 07:40:13;;;;;;;6.47;1.20;;;11.10;99.90;;;;;;5099451;28;20063;-79
2023/05/16 07:42:38;;;;;;;8.10;1.20;;;11.20;99.90;;;;;;5076772;28;20039;-82
2023/05/16 07:45:06;;;;;;;7.63;1.70;;;11.10;99.90;;;;;;5105564;28;20446;-82
2023/05/16 07:47:32;;;;;;;9.23;2.05;;;11.30;99.90;;;;;;5086568;28;20495;-79
2023/05/16 07:49:57;;;;;;;9.90;1.45;;;11.60;99.90;;;;;;5089463;28;20043;-82
2023/05/16 07:52:23;;;;;;;10.13;1.75;;;11.90;99.90;;;;;;5097715;28;20073;-83
2023/05/16 07:54:48;;;;;;;10.70;1.92;;;12.30;99.90;;;;;;5073591;28;20032;-81
2023/05/16 07:57:14;;;;;;;6.88;1.38;;;12.40;99.90;;;;;;5096080;28;20122;-79
2023/05/16 07:59:40;;;;;;;9.25;1.73;;;12.10;99.90;;;;;;5095993;28;20083;-82
2023/05/16 08:02:06;;;;;;;14.00;1.90;;;11.90;99.90;;;;;;5095395;28;20032;-80
2023/05/16 08:04:32;;;;;;;6.75;1.42;;;12.00;99.90;;;;;;5087849;28;20130;-79
2023/05/16 08:06:57;;;;;;;9.23;1.88;;;12.00;99.90;;;;;;5088725;28;20043;-81
2023/05/16 08:09:23;;;;;;;6.07;1.40;;;12.10;99.90;;;;;;5079695;28;20114;-79
2023/05/16 08:11:48;;;;;;;4.93;1.38;;;12.00;99.90;;;;;;5095354;28;20105;-82
2023/05/16 08:14:14;;;;;;;9.77;1.40;;;11.90;99.90;;;;;;5094712;28;20036;-79
2023/05/16 08:16:39;;;;;;;9.23;1.65;;;11.80;99.90;;;;;;5096004;28;20037;-80
2023/05/16 08:19:06;;;;;;;13.85;1.48;;;11.70;99.90;;;;;;5112064;28;20145;-80
2023/05/16 08:21:31;;;;;;;6.20;1.42;;;11.70;99.90;;;;;;5099011;28;20127;-79
2023/05/16 08:23:57;;;;;;;7.32;1.65;;;11.60;99.90;;;;;;5094878;28;20111;-81
2023/05/16 08:26:23;;;;;;;7.22;1.63;;;11.40;99.90;;;;;;5093574;28;20044;-84
2023/05/16 08:28:49;;;;;;;9.23;1.80;;;11.20;99.90;;;;;;5094690;28;20044;-82
2023/05/16 08:31:14;;;;;;;10.48;1.63;;;11.00;99.90;;;;;;5095406;28;20035;-78
2023/05/16 08:33:40;;;;;;;6.88;1.58;;;11.20;99.90;;;;;;5091025;28;20682;-81
2023/05/16 08:36:06;;;;;;;5.82;1.10;;;11.50;99.90;;;;;;5080772;28;20036;-79
2023/05/16 08:38:31;;;;;;;6.40;1.58;;;12.00;99.90;;;;;;5095199;28;20518;-80
2023/05/16 08:40:57;;;;;;;10.48;2.08;;;12.20;99.90;;;;;;5089139;28;20036;-81
2023/05/16 08:43:23;;;;;;;6.43;1.45;;;12.20;99.90;;;;;;5090683;28;20047;-79
2023/05/16 08:45:49;;;;;;;10.63;2.47;;;12.10;99.90;;;;;;5090384;28;20071;-79
2023/05/16 08:48:17;;;;;;;10.07;1.40;;;12.00;99.90;;;;;;5093519;28;20072;-80
2023/05/16 08:50:42;;;;;;;10.65;1.35;;;11.90;99.90;;;;;;5076218;28;20042;-80
2023/05/16 08:53:10;;;;;;;8.57;1.30;;;12.00;99.90;;;;;;5089094;28;20036;-81
2023/05/16 08:55:38;;;;;;;6.90;1.20;;;12.10;99.90;;;;;;5090325;28;20038;-80
2023/05/16 08:58:03;;;;;;;8.48;1.50;;;12.30;99.90;;;;;;5094222;28;20456;-85
2023/05/16 09:00:30;;;;;;;7.38;1.63;;;12.50;99.90;;;;;;5092186;28;20047;-81
2023/05/16 09:02:56;;;;;;;9.02;1.70;;;12.50;99.90;;;;;;5091147;28;20040;-79
2023/05/16 09:05:23;;;;;;;10.73;1.85;;;12.70;99.90;;;;;;5091405;28;20066;-81
2023/05/16 09:07:48;;;;;;;7.20;1.42;;;12.60;99.90;;;;;;5089273;28;20400;-80
2023/05/16 09:10:14;;;;;;;7.25;1.67;;;12.60;99.90;;;;;;5091847;28;20035;-79
2023/05/16 09:12:43;;;;;;;8.07;1.30;;;12.70;99.90;;;;;;5094209;28;20039;-80
2023/05/16 09:15:10;;;;;;;10.60;1.65;;;12.70;99.90;;;;;;5073050;28;20442;-78
2023/05/16 09:17:43;;;;;;;10.27;1.65;;;12.80;99.90;;;;;;5092937;28;20032;-81
2023/05/16 09:20:10;;;;;;;6.13;1.00;;;12.70;99.90;;;;;;5093498;28;20039;-80
2023/05/16 09:22:36;;;;;;;6.50;1.48;;;12.60;99.90;;;;;;5096490;28;20112;-80
2023/05/16 09:25:03;;;;;;;7.28;1.10;;;12.90;99.90;;;;;;5094682;28;20034;-82
2023/05/16 09:27:30;;;;;;;9.48;1.55;;;13.10;99.90;;;;;;5095232;28;20078;-80
2023/05/16 09:29:57;;;;;;;5.68;1.33;;;13.30;99.90;;;;;;5093557;28;20468;-81
2023/05/16 09:32:23;;;;;;;8.38;2.08;;;13.10;99.90;;;;;;5075275;28;21304;-81
2023/05/16 09:34:51;;;;;;;9.40;1.83;;;13.20;99.90;;;;;;5089043;28;20112;-82
2023/05/16 09:37:18;;;;;;;9.40;2.08;;;13.20;99.90;;;;;;5093945;28;20032;-79
2023/05/16 09:39:48;;;;;;;6.70;1.30;;;13.20;99.90;;;;;;5072932;28;20032;-81
2023/05/16 09:42:15;;;;;;;7.97;1.38;;;13.20;99.90;;;;;;5074862;28;20055;-80
2023/05/16 09:44:44;;;;;;;3.97;0.93;;;13.40;99.90;;;;;;5087965;28;20054;-81
2023/05/16 09:47:12;;;;;;;7.25;1.42;;;13.60;99.90;;;;;;5086885;28;20411;-78
2023/05/16 09:49:38;;;;;;;5.57;1.40;;;13.80;99.90;;;;;;5090266;28;20388;-78
2023/05/16 09:52:04;;;;;;;9.38;1.70;;;13.70;99.90;;;;;;5083117;28;20035;-81
2023/05/16 09:54:34;;;;;;;7.10;1.58;;;13.00;99.90;;;;;;5090782;28;20088;-82
2023/05/16 09:57:00;;;;;;;8.77;1.65;;;12.00;99.90;;;;;;5088593;28;20124;-81
2023/05/16 09:59:34;;;;;;;9.93;1.55;;;11.60;99.90;;;;;;5075917;28;20039;-82
2023/05/16 10:02:00;;;;;;;11.40;1.90;;;11.80;99.90;;;;;;5089711;28;20068;-83
2023/05/16 10:04:25;;;;;;;8.20;1.58;;;12.00;99.90;;;;;;5083242;28;20483;-78
2023/05/16 10:06:54;;;;;;;9.82;1.65;;;12.30;99.90;;;;;;5085075;28;20064;-84
2023/05/16 10:09:21;;;;;;;8.52;1.42;;;12.60;99.90;;;;;;5098635;28;20050;-80
2023/05/16 10:11:48;;;;;;;9.40;1.83;;;12.50;99.90;;;;;;5105615;28;20036;-81
2023/05/16 10:14:17;;;;;;;9.85;1.27;;;12.40;99.90;;;;;;5082499;28;20035;-79
2023/05/16 10:16:45;;;;;;;10.10;1.35;;;12.40;99.90;;;;;;5093783;28;20036;-82
2023/05/16 10:19:11;;;;;;;7.10;1.20;;;12.80;99.90;;;;;;5103642;28;20458;-81
2023/05/16 10:21:39;;;;;;;8.60;1.55;;;13.10;99.90;;;;;;5098673;28;20064;-80
2023/05/16 10:24:09;;;;;;;10.02;1.50;;;12.80;99.90;;;;;;5085854;28;20118;-84
2023/05/16 10:26:35;;;;;;;7.32;1.40;;;12.80;99.90;;;;;;5078823;28;20089;-82
2023/05/16 10:29:02;;;;;;;6.07;1.33;;;13.00;99.90;;;;;;5103450;28;20103;-82
2023/05/16 10:31:28;;;;;;;7.80;1.42;;;12.90;99.90;;;;;;5104583;28;20392;-81
2023/05/16 10:33:56;;;;;;;9.10;1.35;;;12.80;99.90;;;;;;5089018;28;20055;-80
2023/05/16 10:36:22;;;;;;;7.45;1.20;;;12.90;99.90;;;;;;5097331;28;20040;-82
2023/05/16 10:38:49;;;;;;;5.97;1.35;;;12.90;99.90;;;;;;5103184;28;20046;-81
2023/05/16 10:41:15;;;;;;;6.88;0.85;;;13.20;99.90;;;;;;5106943;28;20531;-82
2023/05/16 10:43:43;;;;;;;4.47;1.20;;;13.30;99.90;;;;;;5103852;28;20063;-82
2023/05/16 10:46:11;;;;;;;7.22;1.13;;;13.40;99.90;;;;;;5101503;28;20063;-83
2023/05/16 10:48:41;;;;;;;6.18;1.10;;;13.20;99.90;;;;;;5104489;28;20118;-82
2023/05/16 10:51:21;;;;;;;9.95;1.17;;;13.30;99.90;;;;;;5101744;28;20032;-81
2023/05/16 10:53:50;;;;;;;8.77;1.00;;;13.50;99.90;;;;;;5095826;28;20484;-82
2023/05/16 10:56:22;;;;;;;5.50;1.00;;;13.90;99.90;;;;;;5105836;28;20040;-81
2023/05/16 10:58:47;;;;;;;8.52;1.20;;;13.90;99.90;;;;;;5095433;28;20047;-78
2023/05/16 11:01:26;;;;;;;5.85;1.20;;;13.60;99.90;;;;;;5092772;28;20040;-80
2023/05/16 11:04:01;;;;;;;5.93;1.50;;;13.80;99.90;;;;;;5101799;28;20027;-80
2023/05/16 11:06:33;;;;;;;6.05;1.23;;;13.90;99.90;;;;;;5099032;28;20039;-79
2023/05/16 11:12:01;;;;;;;7.10;2.00;;;13.70;99.90;;;;;;5090186;28;20043;-81
2023/05/16 11:14:33;;;;;;;4.15;1.20;;;13.60;99.90;;;;;;5106653;28;20038;-82
2023/05/16 11:17:34;;;;;;;6.00;1.40;;;13.80;99.90;;;;;;5103742;28;20543;-81
2023/05/16 11:20:00;;;;;;;5.13;1.20;;;13.80;99.90;;;;;;5102985;28;20063;-80
2023/05/16 11:22:28;;;;;;;6.40;1.20;;;13.60;99.90;;;;;;5101395;28;20074;-80
2023/05/16 11:24:55;;;;;;;5.22;1.25;;;13.40;99.90;;;;;;5109271;28;20039;-81
2023/05/16 11:27:41;;;;;;;8.35;1.60;;;13.30;99.90;;;;;;5101950;28;20043;-80
2023/05/16 11:30:14;;;;;;;6.57;1.70;;;13.30;99.90;;;;;;5103782;28;20037;-81
2023/05/16 11:32:41;;;;;;;7.20;1.63;;;13.20;99.90;;;;;;5093193;28;20040;-80
2023/05/16 11:35:10;;;;;;;7.78;1.52;;;13.10;99.90;;;;;;5095453;28;20036;-82
2023/05/16 11:37:38;;;;;;;6.43;1.45;;;13.00;99.90;;;;;;5094330;28;20024;-83
2023/05/16 11:40:05;;;;;;;8.55;1.92;;;13.30;99.90;;;;;;5093486;28;20035;-82
2023/05/16 11:42:41;;;;;;;9.32;2.15;;;13.50;99.90;;;;;;5106096;28;20039;-81
2023/05/16 11:45:13;;;;;;;9.70;1.95;;;13.90;99.90;;;;;;5087165;28;20122;-82
2023/05/16 11:47:40;;;;;;;9.73;1.63;;;14.30;99.90;;;;;;5096735;28;20105;-83
2023/05/16 11:50:10;;;;;;;5.10;1.70;;;14.60;99.90;;;;;;5093225;28;20039;-83
2023/05/16 11:52:36;;;;;;;5.28;1.80;;;14.40;99.90;;;;;;5092301;28;20058;-81
2023/05/16 11:55:05;;;;;;;6.82;1.60;;;14.00;99.90;;;;;;5094876;28;20115;-82
2023/05/16 11:57:31;;;;;;;9.45;1.80;;;13.80;99.90;;;;;;5089386;28;20032;-82
2023/05/16 12:00:12;;;;;;;6.40;1.77;;;13.60;99.90;;;;;;5097104;28;20091;-83
2023/05/16 12:02:38;;;;;;;6.60;1.80;;;13.70;99.90;;;;;;5093857;28;20059;-82
2023/05/16 12:05:10;;;;;;;8.27;2.00;;;14.00;99.90;;;;;;5089063;28;20484;-83
2023/05/16 12:07:36;;;;;;;6.25;1.85;;;14.10;99.90;;;;;;5091903;28;20070;-82
2023/05/16 12:10:09;;;;;;;8.32;1.92;;;13.80;99.90;;;;;;5090520;28;20081;-85
2023/05/16 12:12:36;;;;;;;9.85;2.00;;;13.50;99.90;;;;;;5099552;28;20039;-84
2023/05/16 12:15:05;;;;;;;5.00;1.90;;;13.40;99.90;;;;;;5081560;28;20078;-82
2023/05/16 12:17:31;;;;;;;5.82;1.92;;;13.80;99.90;;;;;;5072964;28;20032;-78
2023/05/16 12:19:57;;;;;;;5.22;1.95;;;14.00;99.90;;;;;;5094332;28;20044;-80
2023/05/16 12:22:24;;;;;;;8.10;2.25;;;14.10;99.90;;;;;;5088395;28;20074;-84
2023/05/16 12:24:50;;;;;;;10.05;2.20;;;13.80;99.90;;;;;;5093853;28;20518;-80
2023/05/16 12:27:23;;;;;;;6.78;2.17;;;13.70;99.90;;;;;;5089486;28;20043;-78
2023/05/16 12:29:49;;;;;;;7.73;2.10;;;13.90;99.90;;;;;;5062080;28;20041;-83
2023/05/16 12:32:19;;;;;;;5.63;1.90;;;14.10;99.90;;;;;;5084187;28;20032;-79
2023/05/16 12:34:52;;;;;;;5.57;1.80;;;14.30;99.90;;;;;;5092968;28;20036;-82
2023/05/16 12:37:19;;;;;;;5.93;2.10;;;14.60;99.90;;;;;;5087696;28;20037;-81
2023/05/16 12:39:46;;;;;;;7.78;2.13;;;14.60;99.90;;;;;;5095274;28;20046;-80
2023/05/16 12:42:13;;;;;;;6.47;1.98;;;14.40;99.90;;;;;;5092456;28;20040;-81
2023/05/16 12:44:39;;;;;;;9.57;2.20;;;14.20;99.90;;;;;;5103604;28;20131;-81
2023/05/16 12:47:11;;;;;;;7.72;2.45;;;14.00;99.90;;;;;;5084731;28;20033;-83
2023/05/16 12:49:44;;;;;;;5.80;2.17;;;14.00;99.90;;;;;;5100978;28;20032;-82
2023/05/16 12:52:17;;;;;;;5.78;2.35;;;13.80;99.90;;;;;;5097393;28;20488;-81
2023/05/16 12:54:44;;;;;;;6.25;2.10;;;13.70;99.90;;;;;;5090879;28;20039;-81